createdAt,value
2022-11-24T00:01:05.901Z,8.29
2022-11-24T00:03:32.760Z,8.34
2022-11-24T00:06:04.283Z,8.34
2022-11-24T00:08:30.637Z,8.37
2022-11-24T00:11:02.573Z,8.36
2022-11-24T00:13:28.896Z,8.32
2022-11-24T00:15:55.220Z,8.33
2022-11-24T00:18:21.503Z,8.29
2022-11-24T00:20:53.671Z,8.34
2022-11-24T00:23:20.004Z,8.32
2022-11-24T00:25:46.316Z,8.28
2022-11-24T00:28:12.687Z,8.25
2022-11-24T00:30:39.017Z,8.26
2022-11-24T00:33:05.348Z,8.17
2022-11-24T00:35:31.664Z,8.25
2022-11-24T00:37:57.960Z,8.19
2022-11-24T00:40:24.311Z,8.22
2022-11-24T00:42:50.633Z,8.19
2022-11-24T00:45:16.967Z,8.18
2022-11-24T00:47:43.385Z,8.19
2022-11-24T00:50:10.070Z,8.14
2022-11-24T00:52:36.384Z,8.14
2022-11-24T00:55:02.880Z,8.15
2022-11-24T00:57:29.179Z,8.18
2022-11-24T00:59:55.468Z,8.12
2022-11-24T01:02:21.792Z,8.18
2022-11-24T01:04:48.196Z,8.20
2022-11-24T01:07:14.656Z,8.19
2022-11-24T01:09:43.118Z,8.19
2022-11-24T01:12:09.488Z,8.14
2022-11-24T01:14:36.254Z,8.19
2022-11-24T01:17:02.948Z,8.17
2022-11-24T01:19:29.256Z,8.16
2022-11-24T01:21:55.600Z,8.14
2022-11-24T01:24:22.007Z,8.16
2022-11-24T01:26:48.308Z,8.16
2022-11-24T01:29:14.755Z,8.03
2022-11-24T01:31:41.228Z,8.04
2022-11-24T01:34:07.708Z,8.07
2022-11-24T01:36:34.136Z,8.02
2022-11-24T01:39:00.500Z,7.99
2022-11-24T01:41:27.082Z,7.98
2022-11-24T01:43:54.749Z,7.97
2022-11-24T01:46:24.121Z,7.91
2022-11-24T01:49:08.769Z,7.87
2022-11-24T01:51:57.916Z,7.90
2022-11-24T01:54:39.074Z,7.89
2022-11-24T01:57:28.057Z,7.91
2022-11-24T01:59:59.845Z,7.91
2022-11-24T02:02:28.524Z,7.98
2022-11-24T02:04:58.720Z,8.03
2022-11-24T02:07:25.927Z,8.09
2022-11-24T02:09:55.787Z,8.12
2022-11-24T02:12:24.440Z,8.11
2022-11-24T02:14:52.019Z,8.09
2022-11-24T02:17:18.313Z,8.08
2022-11-24T02:19:57.344Z,8.20
2022-11-24T02:22:45.394Z,8.20
2022-11-24T02:25:27.839Z,8.17
2022-11-24T02:27:55.814Z,8.20
2022-11-24T02:30:22.365Z,8.21
2022-11-24T02:32:49.758Z,8.16
2022-11-24T02:35:16.104Z,8.16
2022-11-24T02:37:42.486Z,8.21
2022-11-24T02:40:09.529Z,8.29
2022-11-24T02:42:40.268Z,8.30
2022-11-24T02:45:09.098Z,8.38
2022-11-24T02:47:35.394Z,8.38
2022-11-24T02:50:01.759Z,8.37
2022-11-24T02:52:28.100Z,8.37
2022-11-24T02:54:54.408Z,8.31
2022-11-24T02:57:23.087Z,8.41
2022-11-24T02:59:49.466Z,8.42
2022-11-24T03:02:15.845Z,8.34
2022-11-24T03:04:44.490Z,8.38
2022-11-24T03:07:10.869Z,8.38
2022-11-24T03:09:37.203Z,8.38
2022-11-24T03:12:04.872Z,8.44
2022-11-24T03:14:31.337Z,8.42
2022-11-24T03:16:58.027Z,8.45
2022-11-24T03:19:24.340Z,8.48
2022-11-24T03:21:50.674Z,8.47
2022-11-24T03:24:16.983Z,8.51
2022-11-24T03:26:43.313Z,8.54
2022-11-24T03:29:09.629Z,8.55
2022-11-24T03:31:35.996Z,8.52
2022-11-24T03:34:02.402Z,8.52
2022-11-24T03:36:28.703Z,8.51
2022-11-24T03:38:55.048Z,8.50
2022-11-24T03:41:21.697Z,8.54
2022-11-24T03:43:48.012Z,8.49
2022-11-24T03:46:14.373Z,8.46
2022-11-24T03:48:40.723Z,8.43
2022-11-24T03:51:07.348Z,8.44
2022-11-24T03:53:34.160Z,8.41
2022-11-24T03:56:01.851Z,8.49
2022-11-24T03:58:28.950Z,8.40
2022-11-24T04:00:56.055Z,8.42
2022-11-24T04:03:23.115Z,8.41
2022-11-24T04:05:49.487Z,8.48
2022-11-24T04:08:16.701Z,8.43
2022-11-24T04:10:43.486Z,8.46
2022-11-24T04:13:17.640Z,8.50
2022-11-24T04:15:44.533Z,8.48
2022-11-24T04:18:12.675Z,8.51
2022-11-24T04:20:40.389Z,8.49
2022-11-24T04:23:06.935Z,8.51
2022-11-24T04:25:33.844Z,8.58
2022-11-24T04:28:00.169Z,8.52
2022-11-24T04:30:28.360Z,8.59
2022-11-24T04:32:55.270Z,8.59
2022-11-24T04:35:21.621Z,8.61
2022-11-24T04:37:48.054Z,8.56
2022-11-24T04:40:14.922Z,8.65
2022-11-24T04:42:41.487Z,8.64
2022-11-24T04:45:08.791Z,8.61
2022-11-24T04:47:35.156Z,8.61
2022-11-24T04:50:01.609Z,8.60
2022-11-24T04:52:29.888Z,8.52
2022-11-24T04:54:56.179Z,8.56
2022-11-24T04:57:25.311Z,8.62
2022-11-24T04:59:52.591Z,8.47
2022-11-24T05:02:19.558Z,8.49
2022-11-24T05:04:46.445Z,8.46
2022-11-24T05:07:18.288Z,8.46
2022-11-24T05:10:04.493Z,8.47
2022-11-24T05:12:31.325Z,8.45
2022-11-24T05:15:02.278Z,8.49
2022-11-24T05:17:30.644Z,8.48
2022-11-24T05:19:57.660Z,8.56
2022-11-24T05:22:23.994Z,8.52
2022-11-24T05:24:50.353Z,8.44
2022-11-24T05:27:16.729Z,8.49
2022-11-24T05:29:43.114Z,8.54
2022-11-24T05:32:09.820Z,8.54
2022-11-24T05:34:36.434Z,8.54
2022-11-24T05:37:03.694Z,8.55
2022-11-24T05:39:34.533Z,8.65
2022-11-24T05:42:25.865Z,8.59
2022-11-24T05:44:52.915Z,8.60
2022-11-24T05:47:19.810Z,8.57
2022-11-24T05:49:46.148Z,8.61
2022-11-24T05:52:12.573Z,8.66
2022-11-24T05:54:38.880Z,8.59
2022-11-24T05:57:05.302Z,8.61
2022-11-24T05:59:31.654Z,8.61
2022-11-24T06:01:58.047Z,8.65
2022-11-24T06:04:24.436Z,8.56
2022-11-24T06:06:50.823Z,8.68
2022-11-24T06:09:17.279Z,8.66
2022-11-24T06:11:43.649Z,8.65
2022-11-24T06:14:11.551Z,8.63
2022-11-24T06:16:38.338Z,8.68
2022-11-24T06:19:04.855Z,8.73
2022-11-24T06:21:31.736Z,8.72
2022-11-24T06:23:58.250Z,8.72
2022-11-24T06:26:24.612Z,8.68
2022-11-24T06:28:50.936Z,8.63
2022-11-24T06:31:17.288Z,8.60
2022-11-24T06:33:43.635Z,8.59
2022-11-24T06:36:13.072Z,8.61
2022-11-24T06:38:39.486Z,8.65
2022-11-24T06:41:09.408Z,8.65
2022-11-24T06:43:36.488Z,8.59
2022-11-24T06:46:03.809Z,8.63
2022-11-24T06:48:30.708Z,8.62
2022-11-24T06:51:01.278Z,8.58
2022-11-24T06:53:33.537Z,8.58
2022-11-24T06:56:01.460Z,8.68
2022-11-24T06:58:28.011Z,8.66
2022-11-24T07:00:54.482Z,8.67
2022-11-24T07:03:21.027Z,8.74
2022-11-24T07:05:47.491Z,8.67
2022-11-24T07:08:17.766Z,8.73
2022-11-24T07:10:44.583Z,8.70
2022-11-24T07:13:10.868Z,8.71
2022-11-24T07:15:37.351Z,8.68
2022-11-24T07:18:03.837Z,8.74
2022-11-24T07:20:30.306Z,8.69
2022-11-24T07:22:57.819Z,8.71
2022-11-24T07:25:27.546Z,8.76
2022-11-24T07:27:57.978Z,8.77
2022-11-24T07:30:25.355Z,8.84
2022-11-24T07:32:51.685Z,8.82
2022-11-24T07:35:18.016Z,8.87
2022-11-24T07:37:44.340Z,8.89
2022-11-24T07:40:11.288Z,8.89
2022-11-24T07:42:37.596Z,9.01
2022-11-24T07:45:04.196Z,8.96
2022-11-24T07:47:30.508Z,8.90
2022-11-24T07:49:56.803Z,8.93
2022-11-24T07:52:26.460Z,8.91
2022-11-24T07:54:52.767Z,8.90
2022-11-24T07:57:19.076Z,8.88
2022-11-24T07:59:45.375Z,8.86
2022-11-24T08:02:13.029Z,8.88
2022-11-24T08:04:39.418Z,8.86
2022-11-24T08:07:05.784Z,8.86
2022-11-24T08:09:32.099Z,8.78
2022-11-24T08:11:58.408Z,8.76
2022-11-24T08:14:24.728Z,8.80
2022-11-24T08:16:51.106Z,8.84
2022-11-24T08:19:17.525Z,8.80
2022-11-24T08:21:43.842Z,8.78
2022-11-24T08:24:10.317Z,8.67
2022-11-24T08:26:36.690Z,8.60
2022-11-24T08:29:03.038Z,8.62
2022-11-24T08:31:36.072Z,8.70
2022-11-24T08:34:03.915Z,8.73
2022-11-24T08:36:30.307Z,8.71
2022-11-24T08:38:58.124Z,8.77
2022-11-24T08:41:25.443Z,8.82
2022-11-24T08:43:51.832Z,8.82
2022-11-24T08:46:18.995Z,8.74
2022-11-24T08:48:49.971Z,8.75
2022-11-24T08:51:19.653Z,8.77
2022-11-24T08:53:46.064Z,8.59
2022-11-24T08:56:13.314Z,8.57
2022-11-24T08:58:40.238Z,8.59
2022-11-24T09:01:13.019Z,8.57
2022-11-24T09:03:43.519Z,8.55
2022-11-24T09:06:15.071Z,8.54
2022-11-24T09:08:41.928Z,8.60
2022-11-24T09:11:10.344Z,8.57
2022-11-24T09:13:37.530Z,8.60
2022-11-24T09:16:04.856Z,8.60
2022-11-24T09:18:31.412Z,8.57
2022-11-24T09:21:12.477Z,8.55
2022-11-24T09:23:39.901Z,8.55
2022-11-24T09:26:14.232Z,8.61
2022-11-24T09:28:41.517Z,8.61
2022-11-24T09:31:10.944Z,8.66
2022-11-24T09:33:38.149Z,8.60
2022-11-24T09:36:05.767Z,8.57
2022-11-24T09:38:32.621Z,8.64
2022-11-24T09:41:26.678Z,8.72
2022-11-24T09:44:02.087Z,8.80
2022-11-24T09:46:51.937Z,8.84
2022-11-24T09:49:33.264Z,8.81
2022-11-24T09:52:03.155Z,8.85
2022-11-24T09:54:32.862Z,8.94
2022-11-24T09:57:01.392Z,8.86
2022-11-24T09:59:28.349Z,8.86
2022-11-24T10:01:55.669Z,8.87
2022-11-24T10:04:25.148Z,8.87
2022-11-24T10:07:09.484Z,8.84
2022-11-24T10:09:38.763Z,8.86
2022-11-24T10:12:46.963Z,8.84
2022-11-24T10:15:25.438Z,8.80
2022-11-24T10:18:18.332Z,8.79
2022-11-24T10:21:09.346Z,8.87
2022-11-24T10:23:58.817Z,8.88
2022-11-24T10:26:48.626Z,8.88
2022-11-24T10:29:24.776Z,8.92
2022-11-24T10:31:54.937Z,8.94
2022-11-24T10:34:28.725Z,8.99
2022-11-24T10:37:01.708Z,9.01
2022-11-24T10:39:46.556Z,9.02
2022-11-24T10:42:26.420Z,9.10
2022-11-24T10:45:01.258Z,9.18
2022-11-24T10:47:28.537Z,9.25
2022-11-24T10:50:15.181Z,9.40
2022-11-24T10:52:45.035Z,9.53
2022-11-24T10:55:11.483Z,9.60
2022-11-24T10:57:39.358Z,9.63
2022-11-24T11:00:20.836Z,9.63
2022-11-24T11:03:09.696Z,9.60
2022-11-24T11:05:43.031Z,9.54
2022-11-24T11:08:10.453Z,9.59
2022-11-24T11:10:36.837Z,9.57
2022-11-24T11:13:21.284Z,9.66
2022-11-24T11:15:47.764Z,9.73
2022-11-24T11:18:17.353Z,9.85
2022-11-24T11:21:24.753Z,9.96
2022-11-24T11:23:51.697Z,9.91
2022-11-24T11:26:24.299Z,9.83
2022-11-24T11:34:46.796Z,10.06
2022-11-24T11:37:14.567Z,10.14
2022-11-24T11:39:48.437Z,10.13
2022-11-24T11:45:23.863Z,10.01
2022-11-24T11:48:05.351Z,9.99
2022-11-24T11:51:21.111Z,10.00
2022-11-24T11:53:44.661Z,9.96
2022-11-24T11:56:40.139Z,9.94
2022-11-24T11:59:43.226Z,9.80
2022-11-24T12:02:47.259Z,9.85
2022-11-24T12:05:42.091Z,9.81
2022-11-24T12:09:11.700Z,9.90
2022-11-24T12:11:40.423Z,9.98
2022-11-24T12:14:39.291Z,9.95
2022-11-24T12:17:39.974Z,9.88
2022-11-24T12:20:24.726Z,9.91
2022-11-24T12:23:06.505Z,9.94
2022-11-24T12:25:41.850Z,9.98
2022-11-24T12:28:17.473Z,10.08
2022-11-24T12:31:05.675Z,9.99
2022-11-24T12:33:49.107Z,10.06
2022-11-24T12:36:23.190Z,10.04
2022-11-24T12:39:05.321Z,9.96
2022-11-24T12:41:53.150Z,9.91
2022-11-24T12:44:52.244Z,9.95
2022-11-24T12:47:27.109Z,9.94
2022-11-24T12:50:20.072Z,10.00
2022-11-24T12:53:15.855Z,10.16
2022-11-24T12:55:43.627Z,10.31
2022-11-24T12:58:32.012Z,10.46
2022-11-24T13:01:16.692Z,10.45
2022-11-24T13:04:19.025Z,10.54
2022-11-24T13:07:21.274Z,10.59
2022-11-24T13:10:46.510Z,10.68
2022-11-24T13:13:15.285Z,10.82
2022-11-24T13:16:35.181Z,10.95
2022-11-24T13:19:13.821Z,11.05
2022-11-24T13:21:40.274Z,11.13
2022-11-24T13:24:23.145Z,11.10
2022-11-24T13:26:52.755Z,10.97
2022-11-24T13:29:27.968Z,10.68
2022-11-24T13:31:55.363Z,10.64
2022-11-24T13:34:40.243Z,10.63
2022-11-24T13:37:31.293Z,10.55
2022-11-24T13:40:22.369Z,10.50
2022-11-24T13:42:54.736Z,10.44
2022-11-24T13:45:39.780Z,10.47
2022-11-24T13:48:26.599Z,10.47
2022-11-24T13:50:58.818Z,10.50
2022-11-24T13:53:43.631Z,10.40
2022-11-24T13:56:12.922Z,10.38
2022-11-24T13:58:48.574Z,10.35
2022-11-24T14:01:28.493Z,10.43
2022-11-24T14:04:32.274Z,10.50
2022-11-24T14:07:14.214Z,10.49
2022-11-24T14:09:47.357Z,10.48
2022-11-24T14:12:20.123Z,10.47
2022-11-24T14:14:49.026Z,10.56
2022-11-24T14:17:25.388Z,10.58
2022-11-24T14:19:53.975Z,10.62
2022-11-24T14:22:36.771Z,10.59
2022-11-24T14:25:03.929Z,10.67
2022-11-24T14:27:33.638Z,10.71
2022-11-24T14:30:02.426Z,10.62
2022-11-24T14:32:28.881Z,10.66
2022-11-24T14:34:56.694Z,10.68
2022-11-24T14:37:23.208Z,10.61
2022-11-24T14:39:49.551Z,10.59
2022-11-24T14:42:19.886Z,10.51
2022-11-24T14:44:56.486Z,10.49
2022-11-24T14:47:33.168Z,10.43
2022-11-24T14:50:09.917Z,10.46
2022-11-24T14:52:45.682Z,10.43
2022-11-24T14:55:35.085Z,10.37
2022-11-24T14:58:01.658Z,10.36
2022-11-24T15:00:31.056Z,10.35
2022-11-24T15:03:00.305Z,10.21
2022-11-24T15:05:57.099Z,10.19
2022-11-24T15:08:26.156Z,10.17
2022-11-24T15:10:58.506Z,10.23
2022-11-24T15:13:25.524Z,10.07
2022-11-24T15:16:01.828Z,10.08
2022-11-24T15:18:34.149Z,10.02
2022-11-24T15:21:00.815Z,9.93
2022-11-24T15:23:29.606Z,9.91
2022-11-24T15:26:02.643Z,9.78
2022-11-24T15:28:32.381Z,9.69
2022-11-24T15:31:03.921Z,9.72
2022-11-24T15:33:31.394Z,9.74
2022-11-24T15:35:59.366Z,9.69
2022-11-24T15:38:25.737Z,9.55
2022-11-24T15:40:54.100Z,9.47
2022-11-24T15:43:39.794Z,9.40
2022-11-24T15:46:07.662Z,9.23
2022-11-24T15:48:34.126Z,9.15
2022-11-24T15:51:05.116Z,9.10
2022-11-24T15:53:37.548Z,9.07
2022-11-24T15:56:07.358Z,9.02
2022-11-24T15:58:33.956Z,8.91
2022-11-24T16:01:00.340Z,8.83
2022-11-24T16:06:23.361Z,8.75
2022-11-24T16:08:50.783Z,8.66
2022-11-24T16:11:17.098Z,8.63
2022-11-24T16:13:46.987Z,8.59
2022-11-24T16:16:18.515Z,8.61
2022-11-24T16:18:45.287Z,8.68
2022-11-24T16:21:11.772Z,8.72
2022-11-24T16:23:38.094Z,8.67
2022-11-24T16:26:05.276Z,8.68
2022-11-24T16:28:31.658Z,8.68
2022-11-24T16:30:58.048Z,8.60
2022-11-24T16:33:24.476Z,8.62
2022-11-24T16:35:50.918Z,8.60
2022-11-24T16:38:18.811Z,8.62
2022-11-24T16:40:50.035Z,8.56
2022-11-24T16:43:16.330Z,8.47
2022-11-24T16:45:45.587Z,8.43
2022-11-24T16:48:12.105Z,8.41
2022-11-24T16:50:38.474Z,8.34
2022-11-24T16:53:04.804Z,8.21
2022-11-24T16:55:31.343Z,8.13
2022-11-24T16:57:57.705Z,8.03
2022-11-24T17:00:24.189Z,7.96
2022-11-24T17:02:50.616Z,7.87
2022-11-24T17:05:17.064Z,7.82
2022-11-24T17:07:43.398Z,7.74
2022-11-24T17:10:10.055Z,7.70
2022-11-24T17:12:37.007Z,7.73
2022-11-24T17:15:31.061Z,7.66
2022-11-24T17:18:22.477Z,7.62
2022-11-24T17:20:37.230Z,7.57
2022-11-24T17:23:03.548Z,7.50
2022-11-24T17:25:32.059Z,7.49
2022-11-24T17:27:58.469Z,7.45
2022-11-24T17:30:24.823Z,7.46
2022-11-24T17:32:56.432Z,7.43
2022-11-24T17:35:23.484Z,7.48
2022-11-24T17:37:49.829Z,7.48
2022-11-24T17:40:34.303Z,7.57
2022-11-24T17:43:01.170Z,7.66
2022-11-24T17:45:28.764Z,7.69
2022-11-24T17:47:56.060Z,7.74
2022-11-24T17:50:25.644Z,7.93
2022-11-24T17:52:53.044Z,7.96
2022-11-24T17:55:19.333Z,8.06
2022-11-24T17:57:45.648Z,8.06
2022-11-24T18:00:12.621Z,8.16
2022-11-24T18:02:39.003Z,8.20
2022-11-24T18:05:05.677Z,8.29
2022-11-24T18:07:32.216Z,8.33
2022-11-24T18:09:58.574Z,8.36
2022-11-24T18:12:24.882Z,8.35
2022-11-24T18:14:51.198Z,8.40
2022-11-24T18:17:17.511Z,8.45
2022-11-24T18:19:43.853Z,8.46
2022-11-24T18:22:10.220Z,8.43
2022-11-24T18:24:36.898Z,8.55
2022-11-24T18:27:03.626Z,8.60
2022-11-24T18:29:30.361Z,8.61
2022-11-24T18:31:56.746Z,8.55
2022-11-24T18:34:24.614Z,8.55
2022-11-24T18:36:52.446Z,8.58
2022-11-24T18:39:19.194Z,8.50
2022-11-24T18:41:46.335Z,8.51
2022-11-24T18:44:12.848Z,8.47
2022-11-24T18:46:39.277Z,8.51
2022-11-24T18:49:06.814Z,8.49
2022-11-24T18:51:33.347Z,8.52
2022-11-24T18:53:59.973Z,8.44
2022-11-24T18:56:26.614Z,8.44
2022-11-24T18:58:54.519Z,8.39
2022-11-24T19:01:23.781Z,8.38
2022-11-24T19:03:52.440Z,8.37
2022-11-24T19:06:21.704Z,8.31
2022-11-24T19:08:48.857Z,8.32
2022-11-24T19:11:27.921Z,8.31
2022-11-24T19:13:55.184Z,8.22
2022-11-24T19:16:22.678Z,8.19
2022-11-24T19:18:53.568Z,8.19
2022-11-24T19:21:21.027Z,8.30
2022-11-24T19:23:47.396Z,8.23
2022-11-24T19:26:13.977Z,8.31
2022-11-24T19:28:40.322Z,8.22
2022-11-24T19:31:08.957Z,8.17
2022-11-24T19:33:35.875Z,8.21
2022-11-24T19:36:07.129Z,8.15
2022-11-24T19:38:35.027Z,8.14
2022-11-24T19:41:07.249Z,8.09
2022-11-24T19:43:33.966Z,8.07
2022-11-24T19:46:02.229Z,8.02
2022-11-24T19:48:33.122Z,7.93
2022-11-24T19:51:07.945Z,7.83
2022-11-24T19:53:35.745Z,7.90
2022-11-24T19:56:09.700Z,7.87
2022-11-24T19:58:36.899Z,7.80
2022-11-24T20:01:07.287Z,7.77
2022-11-24T20:03:34.273Z,7.70
2022-11-24T20:06:00.746Z,7.60
2022-11-24T20:08:35.114Z,7.58
2022-11-24T20:11:06.894Z,7.56
2022-11-24T20:13:38.407Z,7.55
2022-11-24T20:16:10.850Z,7.55
2022-11-24T20:18:42.223Z,7.64
2022-11-24T20:21:11.385Z,7.67
2022-11-24T20:23:38.471Z,7.62
2022-11-24T20:26:19.396Z,7.61
2022-11-24T20:28:46.226Z,7.59
2022-11-24T20:31:18.673Z,7.52
2022-11-24T20:33:45.626Z,7.61
2022-11-24T20:36:20.814Z,7.52
2022-11-24T20:38:48.330Z,7.45
2022-11-24T20:41:18.050Z,7.53
2022-11-24T20:43:45.429Z,7.49
2022-11-24T20:46:26.670Z,7.65
2022-11-24T20:48:53.780Z,7.54
2022-11-24T20:51:22.436Z,7.52
2022-11-24T20:53:49.864Z,7.49
2022-11-24T20:56:36.819Z,7.44
2022-11-24T20:59:04.323Z,7.48
2022-11-24T21:01:38.365Z,7.52
2022-11-24T21:04:10.939Z,7.45
2022-11-24T21:06:37.408Z,7.42
2022-11-24T21:09:04.975Z,7.43
2022-11-24T21:11:31.818Z,7.44
2022-11-24T21:13:58.956Z,7.39
2022-11-24T21:16:31.496Z,7.36
2022-11-24T21:19:00.804Z,7.32
2022-11-24T21:21:33.800Z,7.34
2022-11-24T21:24:04.678Z,7.36
2022-11-24T21:26:31.014Z,7.36
2022-11-24T21:28:57.939Z,7.43
2022-11-24T21:31:24.353Z,7.39
2022-11-24T21:33:53.021Z,7.29
2022-11-24T21:36:24.663Z,7.45
2022-11-24T21:38:55.736Z,7.36
2022-11-24T21:41:23.502Z,7.37
2022-11-24T21:43:50.043Z,7.38
2022-11-24T21:46:16.721Z,7.33
2022-11-24T21:48:43.603Z,7.37
2022-11-24T21:51:15.965Z,7.35
2022-11-24T21:53:44.249Z,7.37
2022-11-24T21:56:13.755Z,7.44
2022-11-24T21:58:45.530Z,7.37
2022-11-24T22:01:12.071Z,7.38
2022-11-24T22:03:38.409Z,7.37
2022-11-24T22:06:04.966Z,7.26
2022-11-24T22:08:31.600Z,7.34
2022-11-24T22:11:02.402Z,7.27
2022-11-24T22:13:28.867Z,7.22
2022-11-24T22:16:09.276Z,7.23
2022-11-24T22:18:38.451Z,7.14
2022-11-24T22:21:06.519Z,7.09
2022-11-24T22:23:34.650Z,7.19
2022-11-24T22:26:12.174Z,7.14
2022-11-24T22:28:39.253Z,7.15
2022-11-24T22:31:07.994Z,7.20
2022-11-24T22:33:34.788Z,7.17
2022-11-24T22:36:01.790Z,7.09
2022-11-24T22:38:29.529Z,7.07
2022-11-24T22:41:04.159Z,7.15
2022-11-24T22:43:35.367Z,7.12
2022-11-24T22:46:05.728Z,7.16
2022-11-24T22:48:32.835Z,7.12
2022-11-24T22:51:07.507Z,7.25
2022-11-24T22:53:34.270Z,7.28
2022-11-24T22:56:05.977Z,7.32
2022-11-24T22:58:33.203Z,7.28
2022-11-24T23:01:06.241Z,7.31
2022-11-24T23:03:34.218Z,7.48
2022-11-24T23:06:09.511Z,7.59
2022-11-24T23:08:36.595Z,7.72
2022-11-24T23:11:06.161Z,7.77
2022-11-24T23:13:32.495Z,7.83
2022-11-24T23:16:09.610Z,7.88
2022-11-24T23:18:36.054Z,7.86
2022-11-24T23:21:15.077Z,7.88
2022-11-24T23:23:42.126Z,7.96
2022-11-24T23:26:11.439Z,7.94
2022-11-24T23:28:38.582Z,7.94
2022-11-24T23:31:13.000Z,7.94
2022-11-24T23:33:39.655Z,7.93
2022-11-24T23:36:11.700Z,7.97
2022-11-24T23:38:39.314Z,8.03
2022-11-24T23:41:10.508Z,8.00
2022-11-24T23:43:38.996Z,7.99
2022-11-24T23:46:08.105Z,7.95
2022-11-24T23:48:35.528Z,8.03
2022-11-24T23:51:20.319Z,7.99
2022-11-24T23:53:47.629Z,8.01
2022-11-24T23:56:17.148Z,8.03
2022-11-24T23:58:43.607Z,8.09
